Aeroporto :
LOGIN :

Iscrizione | Disclaimer

   EN    FR    IT 

 










Sommario :    VFR   VFR Marginale   IFR   IFR Intensivo   IFR Molto Intensivo
Visibilità : 
Base nubi : 
>= 8 km
>= 3000ft
5 / 8 km
1000 / 3000 ft
1500m / 5 km
500 / 1000 ft
800 / 1500m
200 / 500 ft
< 800m
< 200 ft
Simboli :   Temporali  Nebbia  Neve Forte  Precipitazioni Forti  Vento > 20 kt
SIGMETs :   Varie  Temporali  Ghiacco  Turbolenza  Onda orograficha  Ceneri Vulcaniche






- Altitudine del aeroporto : 325 ft


LPCS - Cascais

ULTIMO METAR :
  • 061800Z 33013KT 9999 SCT020 18/13 Q1012

METARs OBSOLETI :
  • 061730Z 32009KT 280V340 9999 FEW020 18/13 Q1012
  • 061700Z 30011KT 270V330 9999 FEW022 19/12 Q1012
  • 061630Z 31012KT 280V340 9999 FEW025 19/12 Q1012
  • 061600Z 30012KT 270V330 9999 FEW025 20/11 Q1012
  • 061530Z 31012KT 280V340 9999 FEW025 20/11 Q1012

TAF TAF LPCS
Valido dal 06 a 15 ore il 07 a 00 ore UTC


061400Z 0615/0624 31013KT 9999 FEW020 SCT035



MetMap, La meteo Aeronautica in un colpo d'occhio ! - Copyright ORBIFLY Dicembre 2007 - Disclaimer

ORBIFLY MET'MAP TEAM :

Programmazione e sviluppo : Alexandra Zaïnal
Concezione : Baudouin d'Aumeries
Aiuto per la programmazione : Marc-Olivier Méhu
Supporto tecnico e logistico : Manuel Goepfert
Aiuto per la traduzione : Arnaldo La Scala

Contatto : metmap@orbifly.com




FONTI E CREDITI :

   NOAA